Time;durP1;ratioP1;P1;durP2;ratioP2;P2;SDS_P1;SDS_P2;PMS_P1;PMS_P2;Temp;Humidity;BMP_temperature;BMP_pressure;BME280_temperature;BME280_humidity;BME280_pressure;Samples;Min_cycle;Max_cycle;Signal;HPM_P1;HPM_P2
2020/12/11 03:18:49;;;;;;;;;;;7.40;99.90;;;;;;5071297;23;19930;-88
2020/12/11 03:21:15;;;;;;;;;;;7.50;99.90;;;;;;4979780;28;19936;-89
2020/12/11 03:26:44;;;;;;;;;;;7.30;99.90;;;;;;4981342;28;19933;-88
2020/12/11 03:29:12;;;;;;;;;;;7.80;99.90;;;;;;4979667;28;19934;-89
2020/12/11 03:31:39;;;;;;;;;;;7.30;99.90;;;;;;4979504;28;19926;-88
2020/12/11 03:34:06;;;;;;;;;;;7.40;99.90;;;;;;4979448;28;19937;-89
2020/12/11 03:36:32;;;;;;;;;;;7.30;99.90;;;;;;4979312;28;19925;-89
2020/12/11 03:38:59;;;;;;;;;;;7.30;99.90;;;;;;4979297;28;19926;-88
2020/12/11 03:41:25;;;;;;;;;;;7.70;99.90;;;;;;4979512;28;19926;-90
2020/12/11 03:43:51;;;;;;;;;;;7.30;99.90;;;;;;4978598;28;19937;-90
2020/12/11 03:46:18;;;;;;;;;;;7.30;99.90;;;;;;4979401;28;19934;-88
2020/12/11 03:51:51;;;;;;;;;;;7.30;99.90;;;;;;4980938;28;19933;-88
2020/12/11 03:54:18;;;;;;;;;;;7.50;99.90;;;;;;4979207;28;19932;-89
2020/12/11 03:56:44;;;;;;;;;;;7.30;99.90;;;;;;4978918;28;19941;-89
2020/12/11 03:59:10;;;;;;;;;;;7.30;99.90;;;;;;4978922;28;19926;-88
2020/12/11 04:01:37;;;;;;;;;;;7.30;99.90;;;;;;4978886;28;19926;-87
2020/12/11 04:04:03;;;;;;;;;;;7.30;99.90;;;;;;4978890;28;19936;-89
2020/12/11 04:06:30;;;;;;;;;;;7.30;99.90;;;;;;4978750;28;19926;-89
2020/12/11 04:08:57;;;;;;;;;;;7.30;99.90;;;;;;4978937;28;19926;-88
2020/12/11 04:14:27;;;;;;;;;;;7.30;99.90;;;;;;4983467;28;19925;-90
2020/12/11 04:25:52;;;;;;;;;;;7.30;99.90;;;;;;5016523;23;20007;-86
2020/12/11 04:28:19;;;;;;;;;;;7.30;99.90;;;;;;4983084;28;19926;-83
2020/12/11 04:37:10;;;;;;;;;;;7.30;99.90;;;;;;4991348;28;20028;-85
2020/12/11 04:39:37;;;;;;;;;;;7.30;99.90;;;;;;4988834;28;19997;-84
2020/12/11 05:06:07;;;;;;;;;;;7.20;99.90;;;;;;5043700;23;20020;-84
2020/12/11 05:17:13;;;;;;;;;;;7.30;99.90;;;;;;5031943;23;20382;-91
2020/12/11 05:22:44;;;;;;;;;;;7.30;99.90;;;;;;4991195;23;19933;-89
2020/12/11 05:25:13;;;;;;;;;;;7.40;99.90;;;;;;4978107;28;19937;-88
2020/12/11 05:27:40;;;;;;;;;;;7.40;99.90;;;;;;4977849;28;20288;-87
2020/12/11 05:33:10;;;;;;;;;;;7.40;99.90;;;;;;4981397;28;19980;-88
2020/12/11 05:35:36;;;;;;;;;;;6.40;99.90;;;;;;4977821;28;19936;-88
2020/12/11 05:38:04;;;;;;;;;;;7.40;99.90;;;;;;4977204;28;19926;-87
2020/12/11 05:40:31;;;;;;;;;;;7.40;99.90;;;;;;4977485;28;19965;-89
2020/12/11 05:46:07;;;;;;;;;;;7.40;99.90;;;;;;4993271;23;19926;-91
2020/12/11 05:48:36;;;;;;;;;;;7.40;99.90;;;;;;4977338;28;19926;-90
2020/12/11 05:51:04;;;;;;;;;;;7.40;99.90;;;;;;4977034;28;19926;-91
2020/12/11 05:53:31;;;;;;;;;;;7.40;99.90;;;;;;4976938;28;19927;-92
2020/12/11 05:55:57;;;;;;;;;;;7.40;99.90;;;;;;4976977;28;19926;-91
2020/12/11 05:58:24;;;;;;;;;;;7.40;99.90;;;;;;4976878;28;19926;-92
2020/12/11 06:00:50;;;;;;;;;;;7.40;99.90;;;;;;4976708;28;19946;-91
2020/12/11 06:03:16;;;;;;;;;;;7.40;99.90;;;;;;4976851;28;19925;-91
2020/12/11 06:05:43;;;;;;;;;;;7.40;99.90;;;;;;4976555;28;19933;-90
2020/12/11 06:08:10;;;;;;;;;;;7.40;99.90;;;;;;4976847;28;19937;-92
2020/12/11 06:10:37;;;;;;;;;;;7.40;99.90;;;;;;4976922;28;19993;-91
2020/12/11 06:13:04;;;;;;;;;;;7.40;99.90;;;;;;4976807;28;20272;-92
2020/12/11 06:15:31;;;;;;;;;;;7.40;99.90;;;;;;4977075;28;19926;-90
2020/12/11 06:17:58;;;;;;;;;;;7.40;99.90;;;;;;4977363;28;19926;-91
2020/12/11 06:20:25;;;;;;;;;;;7.40;99.90;;;;;;4977766;28;19926;-91
2020/12/11 06:25:47;;;;;;;;;;;7.40;99.90;;;;;;4990108;23;19985;-89
2020/12/11 07:17:29;;;;;;;;;;;7.50;99.90;;;;;;5032335;23;19937;-90
2020/12/11 09:02:07;;;;;;;;;;;7.70;99.90;;;;;;5086566;23;19926;-87
2020/12/11 09:37:03;;;;;;;;;;;7.80;99.90;;;;;;4983371;28;20014;-86
2020/12/11 09:39:29;;;;;;;;;;;7.80;99.90;;;;;;4977510;28;19926;-86
2020/12/11 09:42:03;;;;;;;;;;;7.80;99.90;;;;;;4976636;28;19932;-88
2020/12/11 09:50:09;;;;;;;;;;;7.80;99.90;;;;;;4977163;28;19932;-89
2020/12/11 09:52:47;;;;;;;;;;;7.80;99.90;;;;;;4977001;28;20324;-87
2020/12/11 09:55:14;;;;;;;;;;;7.90;99.90;;;;;;4976963;28;19926;-87
2020/12/11 09:57:40;;;;;;;;;;;7.90;99.90;;;;;;4976627;28;19936;-87
2020/12/11 10:00:07;;;;;;;;;;;7.90;99.90;;;;;;4976557;28;19925;-87
2020/12/11 10:02:44;;;;;;;;;;;7.90;99.90;;;;;;4977008;28;19981;-87
2020/12/11 10:05:11;;;;;;;;;;;7.90;99.90;;;;;;4976830;28;19936;-88
2020/12/11 10:07:38;;;;;;;;;;;7.90;99.90;;;;;;4976733;28;19926;-89
2020/12/11 10:10:04;;;;;;;;;;;7.90;99.90;;;;;;4976527;28;20343;-88
2020/12/11 10:12:30;;;;;;;;;;;7.90;99.90;;;;;;4976446;28;19926;-87
2020/12/11 10:14:59;;;;;;;;;;;8.00;99.90;;;;;;4976381;28;19933;-88
2020/12/11 10:17:25;;;;;;;;;;;8.00;99.90;;;;;;4976483;28;19952;-89
2020/12/11 10:19:52;;;;;;;;;;;8.00;99.90;;;;;;4976595;28;19926;-88
2020/12/11 10:22:18;;;;;;;;;;;8.00;99.90;;;;;;4976757;28;19926;-88
2020/12/11 10:24:46;;;;;;;;;;;8.00;99.90;;;;;;4976346;28;19938;-88
2020/12/11 10:27:13;;;;;;;;;;;8.00;99.90;;;;;;4976317;28;19926;-88
2020/12/11 10:29:39;;;;;;;;;;;8.10;99.90;;;;;;4976008;28;19929;-89
2020/12/11 10:32:05;;;;;;;;;;;8.10;99.90;;;;;;4976238;28;19926;-89
2020/12/11 10:34:35;;;;;;;;;;;8.10;99.90;;;;;;4976673;28;19926;-89
2020/12/11 10:37:01;;;;;;;;;;;8.10;99.90;;;;;;4976514;28;19926;-89
2020/12/11 10:39:27;;;;;;;;;;;8.20;99.90;;;;;;4976141;28;19926;-89
2020/12/11 10:41:54;;;;;;;;;;;8.20;99.90;;;;;;4976314;28;19926;-89
2020/12/11 10:44:21;;;;;;;;;;;8.20;99.90;;;;;;4976185;28;19926;-89
2020/12/11 10:46:49;;;;;;;;;;;8.20;99.90;;;;;;4976249;28;19941;-89
2020/12/11 10:49:15;;;;;;;;;;;8.30;99.90;;;;;;4976241;28;19930;-89
2020/12/11 10:51:42;;;;;;;;;;;8.30;99.90;;;;;;4976192;28;19926;-89
2020/12/11 10:54:09;;;;;;;;;;;8.30;99.90;;;;;;4979631;28;19926;-89
2020/12/11 10:56:36;;;;;;;;;;;8.30;99.90;;;;;;4980017;28;19981;-89
2020/12/11 10:59:03;;;;;;;;;;;8.30;99.90;;;;;;4979747;28;20346;-89
2020/12/11 11:01:29;;;;;;;;;;;8.30;99.90;;;;;;4979537;28;19926;-90
2020/12/11 11:03:56;;;;;;;;;;;8.40;99.90;;;;;;4979747;28;19926;-89
2020/12/11 11:06:25;;;;;;;;;;;8.40;99.90;;;;;;4980067;28;19933;-89
2020/12/11 11:09:01;;;;;;;;;;;8.40;99.90;;;;;;4979486;28;20278;-90
2020/12/11 11:11:33;;;;;;;;;;;8.40;99.90;;;;;;4976018;28;19980;-89
2020/12/11 11:14:14;;;;;;;;;;;8.50;99.90;;;;;;4979993;28;19926;-89
2020/12/11 11:17:03;;;;;;;;;;;8.50;99.90;;;;;;4979694;28;20347;-90
2020/12/11 11:19:35;;;;;;;;;;;8.50;99.90;;;;;;4979725;28;20236;-90
2020/12/11 11:22:18;;;;;;;;;;;8.50;99.90;;;;;;4979551;28;19926;-90
2020/12/11 11:25:07;;;;;;;;;;;8.50;99.90;;;;;;4979908;28;19930;-90
2020/12/11 11:27:36;;;;;;;;;;;8.50;99.90;;;;;;4979515;28;20259;-90
2020/12/11 11:30:03;;;;;;;;;;;8.60;99.90;;;;;;4979472;28;20017;-90
2020/12/11 11:32:34;;;;;;;;;;;8.60;99.90;;;;;;4978893;28;19930;-90
2020/12/11 11:35:01;;;;;;;;;;;8.60;99.90;;;;;;4979409;28;19952;-89
2020/12/11 11:37:27;;;;;;;;;;;8.60;99.90;;;;;;4979232;28;19937;-89
2020/12/11 11:39:53;;;;;;;;;;;8.60;99.90;;;;;;4978942;28;19926;-89
2020/12/11 11:42:20;;;;;;;;;;;8.60;99.90;;;;;;4978685;28;19926;-90
2020/12/11 11:44:53;;;;;;;;;;;8.70;99.90;;;;;;4979330;28;19926;-90
2020/12/11 11:47:20;;;;;;;;;;;8.70;99.90;;;;;;4979574;28;19934;-90
2020/12/11 11:50:04;;;;;;;;;;;8.70;99.90;;;;;;4978992;28;19965;-90
2020/12/11 11:52:34;;;;;;;;;;;8.70;99.90;;;;;;4978382;28;19989;-95
2020/12/11 11:55:00;;;;;;;;;;;8.70;99.90;;;;;;4979730;28;19926;-96
2020/12/11 11:57:28;;;;;;;;;;;8.70;99.90;;;;;;4979474;28;19926;-95
2020/12/11 11:59:54;;;;;;;;;;;8.70;99.90;;;;;;4979391;28;19926;-95
2020/12/11 12:02:21;;;;;;;;;;;8.60;99.90;;;;;;4980003;28;19926;-95
2020/12/11 12:04:48;;;;;;;;;;;8.70;99.90;;;;;;4978841;28;19930;-95
2020/12/11 12:07:14;;;;;;;;;;;8.70;99.90;;;;;;4979309;28;20335;-95
2020/12/11 12:09:40;;;;;;;;;;;8.70;99.90;;;;;;4979526;28;19933;-95
2020/12/11 12:12:07;;;;;;;;;;;8.70;99.90;;;;;;4979545;28;19926;-94
2020/12/11 12:14:33;;;;;;;;;;;8.80;99.90;;;;;;4979283;28;19926;-96
2020/12/11 12:17:03;;;;;;;;;;;8.80;99.90;;;;;;4979091;28;19926;-95
2020/12/11 12:19:32;;;;;;;;;;;8.80;99.90;;;;;;4978839;28;19930;-95
2020/12/11 12:30:13;;;;;;;;;;;8.90;99.90;;;;;;4977610;28;20362;-92
2020/12/11 12:32:54;;;;;;;;;;;8.90;99.90;;;;;;4978681;28;19933;-92
2020/12/11 12:35:35;;;;;;;;;;;8.90;99.90;;;;;;4980128;28;19961;-90
2020/12/11 12:38:03;;;;;;;;;;;9.00;99.90;;;;;;4979440;28;19922;-94
2020/12/11 12:40:49;;;;;;;;;;;9.00;99.90;;;;;;4978623;28;19929;-95
2020/12/11 12:43:19;;;;;;;;;;;9.00;99.90;;;;;;4978295;28;19926;-96
2020/12/11 12:45:46;;;;;;;;;;;9.00;99.90;;;;;;4978037;28;19969;-95
2020/12/11 12:48:12;;;;;;;;;;;9.00;99.90;;;;;;4978477;28;19925;-96
2020/12/11 12:50:38;;;;;;;;;;;9.10;99.90;;;;;;4978264;28;19930;-95
2020/12/11 12:53:06;;;;;;;;;;;9.10;99.90;;;;;;4978508;28;19926;-95
2020/12/11 12:55:43;;;;;;;;;;;9.10;99.90;;;;;;4978738;28;19934;-95
2020/12/11 12:58:11;;;;;;;;;;;9.20;99.90;;;;;;4978284;28;19927;-95
2020/12/11 13:00:52;;;;;;;;;;;9.20;99.90;;;;;;4978293;28;19926;-95
2020/12/11 13:06:02;;;;;;;;;;;9.20;99.90;;;;;;4978241;28;20346;-95
2020/12/11 13:08:29;;;;;;;;;;;9.20;99.90;;;;;;4978265;28;19938;-95
2020/12/11 13:10:56;;;;;;;;;;;9.20;99.90;;;;;;4977993;28;19937;-95
2020/12/11 13:13:22;;;;;;;;;;;9.10;99.90;;;;;;4978373;28;19938;-95
2020/12/11 13:15:49;;;;;;;;;;;9.10;99.90;;;;;;4977059;28;19930;-95
2020/12/11 13:18:15;;;;;;;;;;;9.10;99.90;;;;;;4977799;28;19931;-94
2020/12/11 13:20:44;;;;;;;;;;;9.10;99.90;;;;;;4977824;28;19926;-94
2020/12/11 13:28:32;;;;;;;;;;;9.00;99.90;;;;;;4977816;28;19926;-96
2020/12/11 13:30:58;;;;;;;;;;;9.00;99.90;;;;;;4977181;28;20371;-95
2020/12/11 13:33:25;;;;;;;;;;;9.00;99.90;;;;;;4977522;28;19937;-95
2020/12/11 13:35:51;;;;;;;;;;;9.00;99.90;;;;;;4977869;28;19926;-95
2020/12/11 13:38:17;;;;;;;;;;;9.00;99.90;;;;;;4977765;28;19926;-95
2020/12/11 13:40:44;;;;;;;;;;;9.00;99.90;;;;;;4977448;28;19926;-95
2020/12/11 13:43:11;;;;;;;;;;;9.00;99.90;;;;;;4977423;28;19937;-95
2020/12/11 13:45:37;;;;;;;;;;;9.00;99.90;;;;;;4977435;28;20338;-96
2020/12/11 13:48:04;;;;;;;;;;;9.00;99.90;;;;;;4977518;28;19937;-95
2020/12/11 13:50:30;;;;;;;;;;;9.00;99.90;;;;;;4977581;28;19926;-95
2020/12/11 13:52:56;;;;;;;;;;;9.00;99.90;;;;;;4977328;28;19926;-95
2020/12/11 13:55:23;;;;;;;;;;;9.00;99.90;;;;;;4977376;28;19933;-95
2020/12/11 13:57:49;;;;;;;;;;;9.00;99.90;;;;;;4977277;28;19929;-96
2020/12/11 14:00:16;;;;;;;;;;;9.00;99.90;;;;;;4977093;28;19941;-95
2020/12/11 14:02:42;;;;;;;;;;;9.00;99.90;;;;;;4977331;28;19937;-96
2020/12/11 14:05:09;;;;;;;;;;;9.00;99.90;;;;;;4977366;28;19941;-95
2020/12/11 14:07:36;;;;;;;;;;;8.90;99.90;;;;;;4977047;28;19926;-96
2020/12/11 14:10:03;;;;;;;;;;;8.90;99.90;;;;;;4976970;28;19926;-94
2020/12/11 14:12:29;;;;;;;;;;;8.90;99.90;;;;;;4976823;28;19937;-95
2020/12/11 14:14:55;;;;;;;;;;;8.90;99.90;;;;;;4977123;28;19937;-94
2020/12/11 14:17:29;;;;;;;;;;;8.90;99.90;;;;;;4977470;28;20271;-95
2020/12/11 14:22:48;;;;;;;;;;;9.00;99.90;;;;;;4977265;28;19938;-94
2020/12/11 14:25:15;;;;;;;;;;;8.90;99.90;;;;;;4976884;28;20390;-96
2020/12/11 14:27:41;;;;;;;;;;;8.90;99.90;;;;;;4976909;28;19926;-95
2020/12/11 14:30:07;;;;;;;;;;;9.00;99.90;;;;;;4976568;28;19926;-95
2020/12/11 14:32:34;;;;;;;;;;;9.00;99.90;;;;;;4976606;28;19937;-94
2020/12/11 14:35:01;;;;;;;;;;;9.00;99.90;;;;;;4976828;28;19952;-95
2020/12/11 14:37:27;;;;;;;;;;;9.00;99.90;;;;;;4976962;28;19926;-95
2020/12/11 14:39:53;;;;;;;;;;;9.00;99.90;;;;;;4976704;28;19945;-94
2020/12/11 14:42:20;;;;;;;;;;;9.00;99.90;;;;;;4976876;28;19948;-95
2020/12/11 14:44:46;;;;;;;;;;;9.00;99.90;;;;;;4977039;28;19937;-95
2020/12/11 14:47:12;;;;;;;;;;;9.00;99.90;;;;;;4976658;28;19933;-96
2020/12/11 14:49:39;;;;;;;;;;;9.00;99.90;;;;;;4976641;28;19949;-95
2020/12/11 14:52:06;;;;;;;;;;;9.00;99.90;;;;;;4976607;28;19926;-94
2020/12/11 14:54:32;;;;;;;;;;;9.00;99.90;;;;;;4976522;28;19937;-95
2020/12/11 14:56:58;;;;;;;;;;;9.00;99.90;;;;;;4976903;28;20466;-96
2020/12/11 14:59:25;;;;;;;;;;;9.00;99.90;;;;;;4976732;28;19979;-95
2020/12/11 15:01:53;;;;;;;;;;;9.00;99.90;;;;;;4976876;28;20232;-95
2020/12/11 15:04:19;;;;;;;;;;;9.00;99.90;;;;;;4977003;28;19930;-96
2020/12/11 15:06:46;;;;;;;;;;;8.90;99.90;;;;;;4976406;28;19937;-94
2020/12/11 15:09:13;;;;;;;;;;;8.90;99.90;;;;;;4976446;28;19926;-94
2020/12/11 15:11:39;;;;;;;;;;;9.00;99.90;;;;;;4976443;28;19930;-95
2020/12/11 15:14:05;;;;;;;;;;;8.90;99.90;;;;;;4976345;28;19926;-94
2020/12/11 15:16:31;;;;;;;;;;;9.00;99.90;;;;;;4976436;28;19926;-95
2020/12/11 15:18:58;;;;;;;;;;;9.00;99.90;;;;;;4976391;28;19937;-95
2020/12/11 15:21:24;;;;;;;;;;;9.00;99.90;;;;;;4976231;28;19926;-94
2020/12/11 15:23:51;;;;;;;;;;;8.90;99.90;;;;;;4976363;28;20359;-95
2020/12/11 15:26:18;;;;;;;;;;;8.90;99.90;;;;;;4976394;28;19926;-96
2020/12/11 15:28:44;;;;;;;;;;;8.90;99.90;;;;;;4976324;28;20017;-94
2020/12/11 15:31:10;;;;;;;;;;;8.90;99.90;;;;;;4976342;28;19933;-93
2020/12/11 15:33:37;;;;;;;;;;;8.90;99.90;;;;;;4976296;28;19933;-95
2020/12/11 15:36:03;;;;;;;;;;;8.90;99.90;;;;;;4976393;28;19926;-94
2020/12/11 15:38:29;;;;;;;;;;;8.80;99.90;;;;;;4977006;28;19934;-94
2020/12/11 15:40:57;;;;;;;;;;;8.80;99.90;;;;;;4979780;28;20339;-94
2020/12/11 15:43:23;;;;;;;;;;;8.90;99.90;;;;;;4979716;28;20381;-95
2020/12/11 15:45:49;;;;;;;;;;;8.80;99.90;;;;;;4979858;28;19930;-95
2020/12/11 15:48:16;;;;;;;;;;;8.80;99.90;;;;;;4979710;28;19926;-95
2020/12/11 15:50:42;;;;;;;;;;;8.40;99.90;;;;;;4979931;28;19936;-95
2020/12/11 15:53:10;;;;;;;;;;;8.80;99.90;;;;;;4979666;28;20017;-95
2020/12/11 15:55:36;;;;;;;;;;;8.80;99.90;;;;;;4979686;28;19934;-94
2020/12/11 15:58:04;;;;;;;;;;;9.10;99.90;;;;;;4979509;28;19926;-95
2020/12/11 16:00:30;;;;;;;;;;;8.80;99.90;;;;;;4979175;28;20029;-94
2020/12/11 16:02:59;;;;;;;;;;;8.80;99.90;;;;;;4979593;28;19973;-95
2020/12/11 16:05:27;;;;;;;;;;;8.80;99.90;;;;;;4979693;28;19981;-95
2020/12/11 16:07:53;;;;;;;;;;;8.70;99.90;;;;;;4979327;28;19926;-94
2020/12/11 16:10:20;;;;;;;;;;;9.00;99.90;;;;;;4979436;28;19936;-96
2020/12/11 16:12:46;;;;;;;;;;;8.70;99.90;;;;;;4979391;28;19926;-96
2020/12/11 16:15:13;;;;;;;;;;;8.60;99.90;;;;;;4979249;28;19926;-96
2020/12/11 16:17:40;;;;;;;;;;;8.60;99.90;;;;;;4979306;28;20349;-96
2020/12/11 16:20:07;;;;;;;;;;;8.60;99.90;;;;;;4978900;28;19926;-96
2020/12/11 16:22:34;;;;;;;;;;;8.60;99.90;;;;;;4967355;28;19926;-96
2020/12/11 16:25:00;;;;;;;;;;;8.60;99.90;;;;;;4959844;29;19993;-96
2020/12/11 16:27:27;;;;;;;;;;;8.50;99.90;;;;;;4959975;29;19926;-96
2020/12/11 16:29:53;;;;;;;;;;;8.50;99.90;;;;;;4960273;29;19930;-96
2020/12/11 16:32:20;;;;;;;;;;;8.50;99.90;;;;;;4959693;29;19930;-96
2020/12/11 16:34:47;;;;;;;;;;;8.50;99.90;;;;;;4959735;29;19930;-95
2020/12/11 16:37:15;;;;;;;;;;;8.50;99.90;;;;;;4959637;29;19978;-96
2020/12/11 16:39:42;;;;;;;;;;;8.40;99.90;;;;;;4959566;29;19927;-95
2020/12/11 16:42:09;;;;;;;;;;;8.40;99.90;;;;;;4959004;29;19931;-96
2020/12/11 16:44:39;;;;;;;;;;;8.40;99.90;;;;;;4959204;29;20263;-95
2020/12/11 16:47:08;;;;;;;;;;;8.40;99.90;;;;;;4959442;29;19949;-95
2020/12/11 16:49:37;;;;;;;;;;;8.40;99.90;;;;;;4959269;28;20367;-96
2020/12/11 16:52:04;;;;;;;;;;;8.30;99.90;;;;;;4959337;29;19927;-96
2020/12/11 16:54:30;;;;;;;;;;;8.30;99.90;;;;;;4959214;29;19949;-96
2020/12/11 16:56:57;;;;;;;;;;;8.30;99.90;;;;;;4959010;29;19933;-95
2020/12/11 16:59:30;;;;;;;;;;;8.30;99.90;;;;;;4958805;29;19936;-96
2020/12/11 17:01:57;;;;;;;;;;;8.70;99.90;;;;;;4959294;29;19926;-96
2020/12/11 17:04:41;;;;;;;;;;;8.50;99.90;;;;;;4958863;29;20439;-95
2020/12/11 17:07:10;;;;;;;;;;;8.30;99.90;;;;;;4959100;29;19962;-95
2020/12/11 17:09:41;;;;;;;;;;;8.30;99.90;;;;;;4959041;29;19936;-93
2020/12/11 17:12:07;;;;;;;;;;;8.30;99.90;;;;;;4957571;28;19973;-92
2020/12/11 17:14:45;;;;;;;;;;;8.30;99.90;;;;;;4958412;29;20271;-93
2020/12/11 17:17:12;;;;;;;;;;;8.00;99.90;;;;;;4958519;28;19937;-93
2020/12/11 17:19:48;;;;;;;;;;;8.80;99.90;;;;;;4957861;28;20021;-93
2020/12/11 17:22:57;;;;;;;;;;;8.40;99.90;;;;;;4961014;29;20037;-96
2020/12/11 17:25:28;;;;;;;;;;;8.70;99.90;;;;;;4903089;29;19955;-93
2020/12/11 17:31:09;;;;;;;;;;;7.40;99.90;;;;;;4949447;29;19927;-87
2020/12/11 17:33:38;;;;;;;;;;;8.30;99.90;;;;;;4959393;29;20018;-91
2020/12/11 17:36:05;;;;;;;;;;;8.30;99.90;;;;;;4959234;29;20009;-90
2020/12/11 17:38:33;;;;;;;;;;;8.30;99.90;;;;;;4957346;29;20187;-89
2020/12/11 17:41:00;;;;;;;;;;;8.30;99.90;;;;;;4957600;29;19949;-89
2020/12/11 17:43:26;;;;;;;;;;;8.30;99.90;;;;;;4957967;29;20009;-89
2020/12/11 17:45:52;;;;;;;;;;;7.60;99.90;;;;;;4957556;29;20356;-89
2020/12/11 17:48:19;;;;;;;;;;;8.30;99.90;;;;;;4957509;29;19931;-89
2020/12/11 17:50:45;;;;;;;;;;;8.30;99.90;;;;;;4957589;29;20324;-89
2020/12/11 17:53:11;;;;;;;;;;;8.30;99.90;;;;;;4957530;29;20374;-88
2020/12/11 17:55:38;;;;;;;;;;;8.30;99.90;;;;;;4957468;29;19926;-89
2020/12/11 17:58:05;;;;;;;;;;;8.30;99.90;;;;;;4957377;29;20339;-89
2020/12/11 18:00:32;;;;;;;;;;;8.30;99.90;;;;;;4956797;28;20015;-89
2020/12/11 18:02:58;;;;;;;;;;;8.30;99.90;;;;;;4957401;29;19927;-87
2020/12/11 18:05:26;;;;;;;;;;;8.20;99.90;;;;;;4957475;29;19937;-89
2020/12/11 18:07:53;;;;;;;;;;;8.30;99.90;;;;;;4957429;29;19950;-89
2020/12/11 18:10:21;;;;;;;;;;;8.30;99.90;;;;;;4957290;29;20271;-89
2020/12/11 18:12:47;;;;;;;;;;;8.30;99.90;;;;;;4957155;29;19930;-89
2020/12/11 18:15:14;;;;;;;;;;;8.30;99.90;;;;;;4957093;29;19927;-88
2020/12/11 18:17:41;;;;;;;;;;;8.30;99.90;;;;;;4956741;29;20296;-88
2020/12/11 18:20:08;;;;;;;;;;;8.30;99.90;;;;;;4957091;29;19930;-89
2020/12/11 18:22:38;;;;;;;;;;;8.30;99.90;;;;;;4957092;29;19926;-89
2020/12/11 18:25:04;;;;;;;;;;;8.30;99.90;;;;;;4957116;29;19926;-89
2020/12/11 18:27:31;;;;;;;;;;;8.30;99.90;;;;;;4957053;29;19937;-89
2020/12/11 18:29:57;;;;;;;;;;;8.30;99.90;;;;;;4956875;29;20046;-89
2020/12/11 18:32:26;;;;;;;;;;;8.30;99.90;;;;;;4957304;28;19964;-89
2020/12/11 18:34:53;;;;;;;;;;;8.30;99.90;;;;;;4957038;29;19927;-89
2020/12/11 18:37:19;;;;;;;;;;;8.20;99.90;;;;;;4957221;29;20352;-90
2020/12/11 18:39:45;;;;;;;;;;;8.30;99.90;;;;;;4956873;29;19926;-89
2020/12/11 18:42:12;;;;;;;;;;;8.30;99.90;;;;;;4956899;29;19937;-89
2020/12/11 18:44:38;;;;;;;;;;;8.20;99.90;;;;;;4960649;29;19926;-90
2020/12/11 18:47:05;;;;;;;;;;;7.00;99.90;;;;;;4959515;29;19926;-84
2020/12/11 18:49:32;;;;;;;;;;;8.30;99.90;;;;;;4957054;29;19937;-90
2020/12/11 18:51:58;;;;;;;;;;;8.30;99.90;;;;;;4957564;29;19926;-91
2020/12/11 18:54:25;;;;;;;;;;;8.30;99.90;;;;;;4957413;29;19954;-90
2020/12/11 18:56:54;;;;;;;;;;;8.20;99.90;;;;;;4957166;29;19926;-91
2020/12/11 18:59:21;;;;;;;;;;;8.30;99.90;;;;;;4957027;29;19941;-93
2020/12/11 19:01:47;;;;;;;;;;;8.30;99.90;;;;;;4963208;29;19937;-92
2020/12/11 19:04:14;;;;;;;;;;;8.70;99.90;;;;;;4957063;29;19926;-91
2020/12/11 19:06:41;;;;;;;;;;;8.40;99.90;;;;;;4957020;29;19926;-91
2020/12/11 19:09:08;;;;;;;;;;;8.20;99.90;;;;;;4957279;29;19937;-90
2020/12/11 19:11:34;;;;;;;;;;;8.30;99.90;;;;;;4956536;29;19926;-89
2020/12/11 19:14:04;;;;;;;;;;;8.30;99.90;;;;;;4958595;28;20027;-89
2020/12/11 19:16:32;;;;;;;;;;;8.30;99.90;;;;;;4960485;29;19934;-90
2020/12/11 19:18:58;;;;;;;;;;;8.30;99.90;;;;;;4960766;29;19934;-90
2020/12/11 19:21:24;;;;;;;;;;;8.30;99.90;;;;;;4960529;29;19927;-90
2020/12/11 19:23:52;;;;;;;;;;;8.30;99.90;;;;;;4963257;29;19932;-89
2020/12/11 19:26:18;;;;;;;;;;;8.30;99.90;;;;;;4960289;29;19927;-89
2020/12/11 19:28:44;;;;;;;;;;;8.30;99.90;;;;;;4960396;29;19926;-89
2020/12/11 19:31:11;;;;;;;;;;;8.30;99.90;;;;;;4960140;29;20347;-89
2020/12/11 19:33:37;;;;;;;;;;;8.30;99.90;;;;;;4960172;29;19926;-88
2020/12/11 19:36:04;;;;;;;;;;;8.30;99.90;;;;;;4959938;29;20343;-88
2020/12/11 19:38:30;;;;;;;;;;;8.30;99.90;;;;;;4959999;29;19926;-88
2020/12/11 19:40:58;;;;;;;;;;;8.30;99.90;;;;;;4959643;29;19931;-88
2020/12/11 19:43:25;;;;;;;;;;;8.30;99.90;;;;;;4959983;29;19969;-88
2020/12/11 19:45:51;;;;;;;;;;;8.30;99.90;;;;;;4959812;29;19938;-88
2020/12/11 19:48:17;;;;;;;;;;;8.30;99.90;;;;;;4959851;29;19930;-88
2020/12/11 19:50:44;;;;;;;;;;;8.20;99.90;;;;;;4960050;29;19927;-88
2020/12/11 19:53:10;;;;;;;;;;;8.20;99.90;;;;;;4959695;29;19946;-88
2020/12/11 19:55:36;;;;;;;;;;;8.20;99.90;;;;;;4959567;29;19926;-87
2020/12/11 19:58:04;;;;;;;;;;;8.20;99.90;;;;;;4959820;29;19933;-88
2020/12/11 20:00:30;;;;;;;;;;;8.20;99.90;;;;;;4959360;29;20359;-88
2020/12/11 20:02:56;;;;;;;;;;;8.20;99.90;;;;;;4959737;29;19933;-88
2020/12/11 20:05:25;;;;;;;;;;;8.20;99.90;;;;;;4959851;29;20304;-89
2020/12/11 20:10:33;;;;;;;;;;;8.20;99.90;;;;;;4958756;29;19923;-87
2020/12/11 20:13:00;;;;;;;;;;;8.20;99.90;;;;;;4958853;29;19930;-87
2020/12/11 20:15:27;;;;;;;;;;;8.20;99.90;;;;;;4958939;29;19927;-87
2020/12/11 20:17:54;;;;;;;;;;;8.20;99.90;;;;;;4956483;29;19926;-88
2020/12/11 20:20:20;;;;;;;;;;;8.20;99.90;;;;;;4958631;29;19926;-87
2020/12/11 20:22:46;;;;;;;;;;;8.20;99.90;;;;;;4958717;29;19927;-87
2020/12/11 20:25:13;;;;;;;;;;;8.20;99.90;;;;;;4958904;28;19934;-87
2020/12/11 20:27:39;;;;;;;;;;;8.20;99.90;;;;;;4959122;29;19930;-87
2020/12/11 20:30:05;;;;;;;;;;;8.20;99.90;;;;;;4958874;29;20249;-87
2020/12/11 20:32:33;;;;;;;;;;;8.20;99.90;;;;;;4958901;28;19926;-87
2020/12/11 20:35:00;;;;;;;;;;;8.20;99.90;;;;;;4959302;29;19930;-87
2020/12/11 20:37:26;;;;;;;;;;;8.10;99.90;;;;;;4958852;29;19926;-88
2020/12/11 20:39:53;;;;;;;;;;;8.20;99.90;;;;;;4958992;29;19934;-87
2020/12/11 20:42:19;;;;;;;;;;;8.10;99.90;;;;;;4958625;29;20438;-87
2020/12/11 20:44:46;;;;;;;;;;;8.10;99.90;;;;;;4958159;29;19935;-87
2020/12/11 20:47:12;;;;;;;;;;;8.20;99.90;;;;;;4958917;29;20307;-87
2020/12/11 20:49:39;;;;;;;;;;;8.20;99.90;;;;;;4958146;29;19926;-87
2020/12/11 20:52:05;;;;;;;;;;;8.20;99.90;;;;;;4958471;29;20323;-87
2020/12/11 20:54:32;;;;;;;;;;;8.10;99.90;;;;;;4958732;29;19926;-87
2020/12/11 20:56:58;;;;;;;;;;;8.20;99.90;;;;;;4958616;29;19938;-87
2020/12/11 20:59:24;;;;;;;;;;;8.10;99.90;;;;;;4958257;29;19937;-87
2020/12/11 21:01:52;;;;;;;;;;;8.10;99.90;;;;;;4958454;29;20271;-87
2020/12/11 21:04:18;;;;;;;;;;;8.10;99.90;;;;;;4958283;29;19926;-87
2020/12/11 21:06:47;;;;;;;;;;;8.10;99.90;;;;;;4958517;29;19926;-87
2020/12/11 21:09:17;;;;;;;;;;;8.10;99.90;;;;;;4958255;29;19926;-87
2020/12/11 21:11:43;;;;;;;;;;;8.10;99.90;;;;;;4958199;29;19926;-87
2020/12/11 21:14:10;;;;;;;;;;;8.10;99.90;;;;;;4958071;29;19930;-87
2020/12/11 21:16:36;;;;;;;;;;;8.10;99.90;;;;;;4958237;29;19950;-88
2020/12/11 21:19:02;;;;;;;;;;;8.00;99.90;;;;;;4958126;29;19926;-87
2020/12/11 21:21:28;;;;;;;;;;;8.00;99.90;;;;;;4958097;29;19953;-87
2020/12/11 21:23:56;;;;;;;;;;;8.00;99.90;;;;;;4958258;29;19926;-87
2020/12/11 21:26:22;;;;;;;;;;;8.00;99.90;;;;;;4957955;29;19926;-87
2020/12/11 21:28:52;;;;;;;;;;;8.00;99.90;;;;;;4957978;29;19981;-87
2020/12/11 21:31:19;;;;;;;;;;;8.00;99.90;;;;;;4957470;29;19926;-87
2020/12/11 21:36:26;;;;;;;;;;;8.00;99.90;;;;;;4945942;29;20304;-87
2020/12/11 21:38:52;;;;;;;;;;;8.00;99.90;;;;;;4957671;29;19926;-88
2020/12/11 21:41:20;;;;;;;;;;;8.00;99.90;;;;;;4957610;29;19938;-87
2020/12/11 21:43:46;;;;;;;;;;;8.00;99.90;;;;;;4957707;29;19926;-87
2020/12/11 21:46:12;;;;;;;;;;;8.00;99.90;;;;;;4957840;29;19953;-88
2020/12/11 21:48:39;;;;;;;;;;;8.00;99.90;;;;;;4957645;29;20251;-86
2020/12/11 21:51:05;;;;;;;;;;;8.00;99.90;;;;;;4957739;29;19938;-84
2020/12/11 21:53:31;;;;;;;;;;;8.00;99.90;;;;;;4957368;29;19927;-82
2020/12/11 21:55:58;;;;;;;;;;;8.00;99.90;;;;;;4957565;29;19930;-89
2020/12/11 21:58:25;;;;;;;;;;;8.00;99.90;;;;;;4957565;29;19926;-89
2020/12/11 22:00:51;;;;;;;;;;;8.00;99.90;;;;;;4956997;29;20267;-88
2020/12/11 22:03:17;;;;;;;;;;;8.00;99.90;;;;;;4957896;29;19926;-88
2020/12/11 22:05:44;;;;;;;;;;;8.00;99.90;;;;;;4957555;29;19927;-87
2020/12/11 22:08:10;;;;;;;;;;;8.00;99.90;;;;;;4957353;29;19930;-88
2020/12/11 22:10:36;;;;;;;;;;;8.00;99.90;;;;;;4957322;29;19927;-88
2020/12/11 22:13:02;;;;;;;;;;;8.00;99.90;;;;;;4957329;29;20344;-88
2020/12/11 22:15:30;;;;;;;;;;;8.00;99.90;;;;;;4957438;29;19937;-88
2020/12/11 22:17:56;;;;;;;;;;;8.00;99.90;;;;;;4957265;29;19934;-88
2020/12/11 22:20:22;;;;;;;;;;;8.00;99.90;;;;;;4957398;29;19934;-87
2020/12/11 22:22:52;;;;;;;;;;;8.00;99.90;;;;;;4956971;29;19927;-88
2020/12/11 22:25:20;;;;;;;;;;;7.90;99.90;;;;;;4957065;29;20340;-88
2020/12/11 22:27:48;;;;;;;;;;;8.00;99.90;;;;;;4957267;29;19926;-88
2020/12/11 22:30:14;;;;;;;;;;;8.00;99.90;;;;;;4956731;29;20264;-88
2020/12/11 22:32:43;;;;;;;;;;;8.00;99.90;;;;;;4956793;29;20275;-88
2020/12/11 22:35:09;;;;;;;;;;;8.00;99.90;;;;;;4956951;29;19926;-88
2020/12/11 22:37:36;;;;;;;;;;;8.00;99.90;;;;;;4956962;29;19978;-88